Time;durP1;ratioP1;P1;durP2;ratioP2;P2;SDS_P1;SDS_P2;PMS_P1;PMS_P2;Temp;Humidity;BMP_temperature;BMP_pressure;BME280_temperature;BME280_humidity;BME280_pressure;Samples;Min_cycle;Max_cycle;Signal;HPM_P1;HPM_P2
2021/07/27 00:02:06;;;;;;;11.73;8.48;;;;;;;19.57;72.21;100206.13;5078089;28;20035;-67
2021/07/27 00:04:52;;;;;;;10.40;7.80;;;;;;;19.57;72.28;100206.13;5080681;28;20063;-67
2021/07/27 00:07:38;;;;;;;12.73;9.00;;;;;;;19.53;72.30;100208.88;5102088;28;20092;-68
2021/07/27 00:10:24;;;;;;;9.55;7.60;;;;;;;19.54;72.16;100224.59;5077226;28;20036;-68
2021/07/27 00:13:10;;;;;;;13.07;8.18;;;;;;;19.53;72.23;100210.84;5081092;28;20032;-67
2021/07/27 00:15:56;;;;;;;11.57;7.70;;;;;;;19.52;71.88;100214.84;5096114;28;20032;-67
2021/07/27 00:18:41;;;;;;;10.93;8.05;;;;;;;19.52;72.73;100201.59;5072067;28;20044;-67
2021/07/27 00:21:27;;;;;;;15.35;8.25;;;;;;;19.49;72.25;100171.34;5083512;28;20032;-67
2021/07/27 00:24:13;;;;;;;12.73;8.65;;;;;;;19.46;71.87;100191.78;5092753;28;20036;-67
2021/07/27 00:26:59;;;;;;;11.77;8.02;;;;;;;19.41;72.04;100215.38;5107398;28;20034;-68
2021/07/27 00:29:45;;;;;;;11.30;7.72;;;;;;;19.42;72.14;100217.03;5099273;28;20391;-67
2021/07/27 00:32:30;;;;;;;10.88;7.88;;;;;;;19.41;72.12;100220.19;5089962;28;20780;-67
2021/07/27 00:35:16;;;;;;;13.23;7.53;;;;;;;19.38;72.45;100220.91;5068076;28;20039;-67
2021/07/27 00:38:08;;;;;;;9.98;7.90;;;;;;;19.36;72.36;100228.91;5072493;28;20040;-67
2021/07/27 00:40:54;;;;;;;11.07;7.93;;;;;;;19.32;72.72;100219.56;5085234;28;20065;-68
2021/07/27 00:43:39;;;;;;;12.18;8.50;;;;;;;19.32;72.84;100223.19;5113451;28;20040;-67
2021/07/27 00:46:25;;;;;;;10.20;8.35;;;;;;;19.29;72.95;100223.09;5086653;28;20039;-68
2021/07/27 00:49:11;;;;;;;13.20;7.80;;;;;;;19.27;72.81;100234.69;5073351;28;20040;-68
2021/07/27 00:51:57;;;;;;;13.57;8.43;;;;;;;19.23;72.53;100224.53;5074768;28;20468;-67
2021/07/27 00:54:43;;;;;;;12.35;8.18;;;;;;;19.24;73.43;100232.59;5077785;28;20032;-67
2021/07/27 00:57:29;;;;;;;13.70;8.20;;;;;;;19.19;73.81;100218.78;5079006;28;20039;-67
2021/07/27 01:00:15;;;;;;;11.85;8.35;;;;;;;19.18;73.57;100219.97;5083148;28;20558;-67
2021/07/27 01:03:01;;;;;;;12.38;9.05;;;;;;;19.13;73.16;100211.78;5092305;28;20043;-67
2021/07/27 01:05:47;;;;;;;13.98;8.43;;;;;;;19.11;73.49;100205.69;5086249;28;20044;-67
2021/07/27 01:08:33;;;;;;;12.35;8.60;;;;;;;19.11;73.69;100205.69;5077742;28;20040;-67
2021/07/27 01:11:23;;;;;;;11.02;8.10;;;;;;;19.07;73.42;100204.78;5083066;28;20703;-68
2021/07/27 01:14:09;;;;;;;10.80;8.00;;;;;;;19.06;73.88;100209.59;5096706;28;20034;-67
2021/07/27 01:16:56;;;;;;;11.35;9.18;;;;;;;19.03;74.25;100201.03;5076145;28;20040;-67
2021/07/27 01:37:31;;;;;;;15.00;9.40;;;;;;;18.97;74.01;100184.44;5075589;28;20331;-68
2021/07/27 01:44:06;;;;;;;11.15;8.35;;;;;;;18.85;74.44;100164.78;5075122;28;20535;-68
2021/07/27 01:46:52;;;;;;;11.23;8.68;;;;;;;18.80;74.80;100164.22;5095260;28;20044;-67
2021/07/27 01:49:42;;;;;;;11.02;8.60;;;;;;;18.79;75.29;100160.59;5094797;28;20044;-67
2021/07/27 01:52:27;;;;;;;12.68;8.20;;;;;;;18.73;75.37;100150.75;5062930;28;20123;-67
2021/07/27 01:55:13;;;;;;;11.25;8.18;;;;;;;18.74;75.28;100138.34;5097465;28;20036;-67
2021/07/27 01:57:59;;;;;;;12.00;8.52;;;;;;;18.71;75.03;100130.59;5087192;28;20027;-67
2021/07/27 02:00:45;;;;;;;12.23;8.80;;;;;;;18.69;74.76;100124.50;5097182;28;20084;-67
2021/07/27 02:03:31;;;;;;;10.95;8.07;;;;;;;18.64;74.94;100110.72;5097707;28;20050;-68
2021/07/27 02:06:16;;;;;;;13.10;8.75;;;;;;;18.63;75.25;100104.25;5080300;28;20088;-68
2021/07/27 02:09:06;;;;;;;10.65;8.27;;;;;;;18.59;74.94;100122.22;5081767;28;20458;-67
2021/07/27 02:11:57;;;;;;;13.40;8.55;;;;;;;18.58;75.24;100145.84;5094575;28;20399;-67
2021/07/27 02:15:05;;;;;;;13.07;8.63;;;;;;;18.54;75.23;100142.94;5095354;28;20523;-67
2021/07/27 02:17:51;;;;;;;12.65;8.88;;;;;;;18.52;75.08;100153.72;5096629;28;20077;-67
2021/07/27 02:20:37;;;;;;;13.98;9.15;;;;;;;18.49;75.21;100162.88;5090989;28;20035;-67
2021/07/27 02:23:23;;;;;;;12.13;8.88;;;;;;;18.47;75.47;100146.38;5090249;28;20032;-67
2021/07/27 02:26:09;;;;;;;12.23;9.07;;;;;;;18.45;75.31;100151.53;5083624;28;20039;-67
2021/07/27 02:28:55;;;;;;;12.45;8.63;;;;;;;18.43;75.30;100148.25;5082903;28;20035;-67
2021/07/27 02:31:42;;;;;;;11.95;8.77;;;;;;;18.41;75.11;100141.34;5090859;28;20075;-68
2021/07/27 02:34:31;;;;;;;12.07;8.40;;;;;;;18.35;75.35;100145.59;5086756;28;20512;-67
2021/07/27 02:37:17;;;;;;;11.95;8.77;;;;;;;18.35;75.67;100143.59;5081847;28;20081;-67
2021/07/27 02:40:05;;;;;;;11.27;8.13;;;;;;;18.32;75.37;100138.69;5078081;28;20050;-68
2021/07/27 02:42:51;;;;;;;12.50;9.00;;;;;;;18.30;75.19;100132.59;5097740;28;20078;-67
2021/07/27 02:45:37;;;;;;;11.40;8.57;;;;;;;18.25;75.68;100136.50;5082731;28;20034;-67
2021/07/27 02:48:22;;;;;;;11.27;8.25;;;;;;;18.23;75.80;100138.00;5075623;28;20452;-67
2021/07/27 02:51:11;;;;;;;14.65;8.38;;;;;;;18.23;75.72;100135.19;5070232;28;20040;-67
2021/07/27 02:53:57;;;;;;;11.77;8.77;;;;;;;18.19;76.02;100135.09;5054711;28;20044;-68
2021/07/27 02:56:43;;;;;;;12.27;8.30;;;;;;;18.16;75.84;100144.22;5074594;28;20396;-68
2021/07/27 02:59:29;;;;;;;11.90;8.55;;;;;;;18.13;75.82;100138.50;5054845;28;20044;-68
2021/07/27 03:02:28;;;;;;;12.90;8.88;;;;;;;18.09;75.73;100138.38;5063399;28;20122;-68
2021/07/27 03:05:15;;;;;;;11.38;8.32;;;;;;;18.07;76.02;100127.50;5073302;28;20389;-67
2021/07/27 03:08:09;;;;;;;11.52;8.50;;;;;;;18.04;76.39;100128.19;5051268;28;20107;-67
2021/07/27 03:10:56;;;;;;;11.68;8.10;;;;;;;18.04;76.09;100136.63;5066107;28;20531;-68
2021/07/27 03:13:41;;;;;;;11.10;8.30;;;;;;;17.99;75.87;100134.06;5065107;28;20777;-68
2021/07/27 03:16:27;;;;;;;11.82;8.73;;;;;;;17.99;76.62;100138.88;5058879;28;20081;-68
2021/07/27 03:19:13;;;;;;;12.13;8.57;;;;;;;17.94;76.78;100134.31;5064684;28;20127;-68
2021/07/27 03:21:59;;;;;;;10.73;8.45;;;;;;;17.93;76.54;100135.47;5060028;28;20036;-67
2021/07/27 03:24:45;;;;;;;14.18;9.00;;;;;;;17.91;76.18;100126.56;5083958;28;20038;-67
2021/07/27 03:27:30;;;;;;;16.83;8.75;;;;;;;17.89;76.35;100128.13;5078283;28;20070;-67
2021/07/27 03:30:20;;;;;;;13.30;8.70;;;;;;;17.90;77.00;100124.13;5067357;28;20040;-67
2021/07/27 03:33:05;;;;;;;12.70;9.00;;;;;;;17.91;76.54;100111.72;5061102;28;20032;-67
2021/07/27 03:35:51;;;;;;;11.85;8.70;;;;;;;17.88;76.93;100116.03;5067408;28;20028;-67
2021/07/27 03:38:37;;;;;;;10.50;8.77;;;;;;;17.89;76.91;100114.09;5051446;28;20032;-67
2021/07/27 03:41:25;;;;;;;10.55;7.97;;;;;;;17.84;76.86;100121.56;5062256;28;20056;-67
2021/07/27 03:44:14;;;;;;;10.13;8.23;;;;;;;17.84;77.16;100115.94;5067704;28;20044;-67
2021/07/27 03:47:00;;;;;;;11.88;8.90;;;;;;;17.83;77.13;100113.50;5064750;28;20059;-67
2021/07/27 03:49:46;;;;;;;12.30;8.27;;;;;;;17.85;77.38;100119.56;5093118;28;20044;-67
2021/07/27 03:52:33;;;;;;;10.45;8.32;;;;;;;17.81;77.36;100110.22;5069177;27;20049;-68
2021/07/27 03:55:19;;;;;;;11.13;8.43;;;;;;;17.81;76.66;100108.22;5077983;28;20040;-67
2021/07/27 03:58:05;;;;;;;12.02;8.57;;;;;;;17.78;76.92;100102.47;5079260;28;20032;-68
2021/07/27 04:00:50;;;;;;;12.90;9.25;;;;;;;17.77;77.61;100104.44;5081950;28;20031;-67
2021/07/27 04:03:36;;;;;;;12.95;8.73;;;;;;;17.76;77.58;100094.38;5087918;28;20131;-67
2021/07/27 04:06:22;;;;;;;11.50;8.88;;;;;;;17.74;77.59;100088.28;5100296;28;20687;-67
2021/07/27 04:09:08;;;;;;;12.95;8.50;;;;;;;17.74;77.23;100079.06;5053312;28;20464;-67
2021/07/27 04:11:53;;;;;;;11.00;8.02;;;;;;;17.72;77.46;100075.78;5098200;28;20479;-68
2021/07/27 04:14:39;;;;;;;12.48;8.82;;;;;;;17.71;77.72;100071.34;5086276;28;20030;-68
2021/07/27 04:17:25;;;;;;;11.45;8.38;;;;;;;17.69;77.66;100068.06;5084830;28;20038;-68
2021/07/27 04:20:11;;;;;;;12.23;8.60;;;;;;;17.68;77.55;100077.66;5107288;28;20038;-68
2021/07/27 04:22:57;;;;;;;11.48;7.65;;;;;;;17.67;77.92;100084.47;5079046;28;20036;-67
2021/07/27 04:25:46;;;;;;;11.13;8.43;;;;;;;17.64;77.25;100094.41;5098246;28;20034;-67
2021/07/27 04:28:32;;;;;;;13.70;8.60;;;;;;;17.61;77.56;100093.13;5098922;28;20111;-67
2021/07/27 04:31:18;;;;;;;12.55;8.63;;;;;;;17.59;78.25;100094.63;5084615;28;20035;-67
2021/07/27 04:34:04;;;;;;;14.20;8.68;;;;;;;17.58;77.71;100093.81;5084684;28;20032;-67
2021/07/27 04:36:56;;;;;;;12.93;8.35;;;;;;;17.58;78.02;100085.41;5094543;27;20488;-67
2021/07/27 04:39:42;;;;;;;10.52;8.35;;;;;;;17.57;78.04;100080.13;5094457;28;20028;-67
2021/07/27 04:42:28;;;;;;;11.35;8.52;;;;;;;17.55;77.68;100074.03;5099462;28;20038;-67
2021/07/27 04:45:14;;;;;;;12.90;9.02;;;;;;;17.54;78.21;100078.84;5079858;28;20040;-67
2021/07/27 04:48:00;;;;;;;12.23;9.02;;;;;;;17.52;78.39;100077.53;5066104;28;20028;-67
2021/07/27 04:50:46;;;;;;;12.90;8.63;;;;;;;17.52;78.39;100077.53;5096317;28;20036;-67
2021/07/27 04:53:36;;;;;;;11.48;8.65;;;;;;;17.50;78.38;100079.91;5084096;28;20100;-67
2021/07/27 04:56:21;;;;;;;11.68;8.88;;;;;;;17.48;78.42;100088.66;5096353;28;20131;-67
2021/07/27 04:59:07;;;;;;;12.60;9.02;;;;;;;17.47;78.99;100086.19;5076360;28;20446;-68
2021/07/27 05:01:53;;;;;;;12.13;8.60;;;;;;;17.46;78.18;100084.56;5084995;28;20491;-68
2021/07/27 05:04:39;;;;;;;11.25;8.02;;;;;;;17.46;78.22;100078.97;5091511;27;20027;-67
2021/07/27 05:07:25;;;;;;;11.45;8.65;;;;;;;17.47;78.45;100078.63;5087182;27;20043;-67
2021/07/27 05:10:11;;;;;;;10.10;7.80;;;;;;;17.53;78.52;100074.41;5109350;28;20035;-72
2021/07/27 05:12:58;;;;;;;10.27;8.07;;;;;;;17.56;78.92;100068.06;5090851;27;20050;-72
2021/07/27 05:15:44;;;;;;;10.18;8.65;;;;;;;17.57;79.00;100069.69;5103610;27;20043;-73
2021/07/27 05:18:29;;;;;;;10.30;8.35;;;;;;;17.60;78.93;100066.19;5096809;27;20046;-72
2021/07/27 05:21:18;;;;;;;12.07;8.82;;;;;;;17.62;79.39;100063.03;5092490;27;20123;-75
2021/07/27 05:24:04;;;;;;;11.77;8.65;;;;;;;17.63;79.12;100059.91;5104087;27;20063;-75
2021/07/27 05:26:59;;;;;;;13.02;8.48;;;;;;;17.62;79.31;100055.44;5091246;27;20649;-74
2021/07/27 05:30:04;;;;;;;15.18;9.15;;;;;;;17.65;78.98;100062.34;5105250;27;20031;-74
2021/07/27 05:32:50;;;;;;;13.52;9.07;;;;;;;17.64;79.06;100066.31;5097302;28;20036;-74
2021/07/27 05:35:36;;;;;;;13.93;8.77;;;;;;;17.63;79.15;100065.50;5104894;27;20074;-75
2021/07/27 05:38:22;;;;;;;12.57;9.00;;;;;;;17.63;79.55;100070.28;5101385;27;20069;-75
2021/07/27 05:41:08;;;;;;;14.32;9.30;;;;;;;17.64;78.94;100071.94;5117697;27;20040;-75
2021/07/27 05:43:54;;;;;;;13.10;9.07;;;;;;;17.61;79.41;100062.22;5090447;27;20047;-75
2021/07/27 05:46:39;;;;;;;13.48;9.75;;;;;;;17.61;79.97;100059.41;5115895;27;20031;-75
2021/07/27 05:49:26;;;;;;;11.23;8.48;;;;;;;17.62;79.35;100051.81;5088796;27;20118;-75
2021/07/27 05:52:12;;;;;;;14.43;8.98;;;;;;;17.60;79.83;100049.34;5099210;28;20056;-75
2021/07/27 05:54:58;;;;;;;11.27;9.10;;;;;;;17.59;79.28;100046.91;5087946;27;20031;-75
2021/07/27 05:57:44;;;;;;;13.38;9.00;;;;;;;17.59;79.40;100044.09;5097008;27;20041;-75
2021/07/27 06:00:30;;;;;;;13.15;9.77;;;;;;;17.57;79.66;100038.00;5101523;27;20039;-75
2021/07/27 06:03:16;;;;;;;10.55;8.38;;;;;;;17.60;80.03;100043.72;5110807;27;20043;-78
2021/07/27 06:06:01;;;;;;;11.73;8.65;;;;;;;17.62;79.79;100051.81;5099626;27;20070;-78
2021/07/27 06:08:47;;;;;;;11.40;8.88;;;;;;;17.64;80.15;100043.84;5090003;27;20031;-77
2021/07/27 06:11:34;;;;;;;9.20;8.15;;;;;;;17.67;79.98;100053.56;5116126;27;20085;-77
2021/07/27 06:14:19;;;;;;;10.75;8.27;;;;;;;17.69;79.89;100046.44;5093177;27;20023;-69
2021/07/27 06:17:05;;;;;;;11.55;8.93;;;;;;;17.69;79.81;100038.00;5113545;27;20110;-69
2021/07/27 06:19:51;;;;;;;10.10;8.43;;;;;;;17.70;80.37;100033.19;5126894;27;20414;-69
2021/07/27 06:22:37;;;;;;;11.35;8.90;;;;;;;17.72;80.65;100037.28;5134022;27;20035;-68
2021/07/27 06:25:23;;;;;;;12.75;9.32;;;;;;;17.73;80.38;100029.69;5131291;27;20189;-68
2021/07/27 06:28:10;;;;;;;12.80;8.88;;;;;;;17.72;80.03;100036.44;5132049;27;20041;-68
2021/07/27 06:30:56;;;;;;;10.88;8.52;;;;;;;17.72;80.71;100036.44;5100655;27;20027;-68
2021/07/27 06:33:43;;;;;;;10.63;8.82;;;;;;;17.70;81.03;100047.25;5121974;27;20494;-68
2021/07/27 06:36:30;;;;;;;14.40;9.00;;;;;;;17.74;80.49;100050.97;5080962;28;20176;-68
2021/07/27 06:39:17;;;;;;;12.60;9.25;;;;;;;17.73;80.56;100047.34;5094152;27;20045;-68
2021/07/27 06:42:03;;;;;;;12.43;8.25;;;;;;;17.75;80.30;100052.63;5117920;27;20049;-68
2021/07/27 06:44:48;;;;;;;15.85;9.00;;;;;;;17.75;81.26;100049.81;5118113;28;20448;-68
2021/07/27 06:47:34;;;;;;;11.57;8.48;;;;;;;17.75;81.40;100053.44;5115317;27;20031;-69
2021/07/27 06:50:20;;;;;;;12.18;8.57;;;;;;;17.77;80.78;100056.69;5095179;28;20049;-68
2021/07/27 06:53:06;;;;;;;12.00;9.27;;;;;;;17.83;80.83;100044.09;5079032;28;20039;-69
2021/07/27 06:55:52;;;;;;;10.52;8.63;;;;;;;17.81;80.30;100034.38;5086926;27;20039;-69
2021/07/27 06:58:38;;;;;;;11.23;8.60;;;;;;;17.84;80.83;100039.28;5079475;27;20031;-69
2021/07/27 07:01:23;;;;;;;9.35;8.10;;;;;;;17.85;81.05;100040.91;5089740;28;20043;-69
2021/07/27 07:04:09;;;;;;;10.82;9.00;;;;;;;17.88;80.82;100033.78;5087098;28;20031;-69
2021/07/27 07:06:55;;;;;;;12.23;8.57;;;;;;;17.90;80.56;100049.09;5101040;28;20042;-69
2021/07/27 07:09:41;;;;;;;10.10;8.05;;;;;;;17.94;81.22;100044.41;5102163;28;20035;-69
2021/07/27 07:12:29;;;;;;;14.43;9.30;;;;;;;17.97;81.85;100034.44;5077115;28;20039;-69
2021/07/27 07:15:14;;;;;;;12.00;8.30;;;;;;;17.97;80.89;100035.28;5097210;27;20023;-69
2021/07/27 07:18:00;;;;;;;11.43;8.85;;;;;;;18.00;81.38;100040.19;5111358;27;20034;-69
2021/07/27 07:20:46;;;;;;;14.77;8.85;;;;;;;18.02;82.30;100051.06;5084374;28;20040;-69
2021/07/27 07:23:32;;;;;;;14.35;9.88;;;;;;;18.05;82.78;100045.56;5102923;28;20564;-69
2021/07/27 07:26:18;;;;;;;12.57;9.90;;;;;;;18.07;82.35;100057.25;5089750;28;20047;-69
2021/07/27 07:29:03;;;;;;;13.32;9.52;;;;;;;18.07;81.86;100053.63;5099272;28;20035;-69
2021/07/27 07:31:49;;;;;;;16.30;10.48;;;;;;;18.10;82.57;100050.09;5101093;28;20080;-69
2021/07/27 07:34:35;;;;;;;13.43;9.50;;;;;;;18.14;81.73;100047.41;5101656;27;20040;-69
2021/07/27 07:37:21;;;;;;;12.85;8.60;;;;;;;18.15;81.60;100054.66;5093483;27;20062;-69
2021/07/27 07:40:08;;;;;;;14.52;9.55;;;;;;;18.18;82.25;100051.13;5090388;28;20067;-69
2021/07/27 07:42:59;;;;;;;12.93;9.20;;;;;;;18.19;81.52;100047.13;5107061;28;20027;-69
2021/07/27 07:45:45;;;;;;;14.38;10.00;;;;;;;18.24;82.33;100049.69;5095255;28;20027;-69
2021/07/27 07:48:30;;;;;;;13.43;10.60;;;;;;;18.25;82.35;100048.53;5115148;28;20062;-69
2021/07/27 07:51:16;;;;;;;13.95;9.98;;;;;;;18.28;82.32;100045.00;5092540;28;20521;-69
2021/07/27 07:54:02;;;;;;;12.88;9.27;;;;;;;18.29;81.96;100046.63;5096196;27;20054;-69
2021/07/27 07:56:48;;;;;;;14.68;10.75;;;;;;;18.33;83.59;100052.34;5090838;27;20039;-69
2021/07/27 07:59:33;;;;;;;12.70;9.25;;;;;;;18.34;82.59;100043.56;5099904;27;20035;-69
2021/07/27 08:02:19;;;;;;;14.75;10.05;;;;;;;18.38;84.44;100055.72;5118339;27;20042;-69
2021/07/27 08:05:05;;;;;;;16.55;12.00;;;;;;;18.42;86.09;100061.47;5105502;27;20065;-69
2021/07/27 08:07:51;;;;;;;10.70;8.85;;;;;;;18.44;81.89;100056.28;5110395;27;20039;-68
2021/07/27 08:10:37;;;;;;;11.27;8.60;;;;;;;18.47;81.91;100053.59;5087732;28;20060;-68
2021/07/27 08:13:23;;;;;;;11.18;9.10;;;;;;;18.53;82.35;100046.53;5101535;27;20069;-68
2021/07/27 08:16:09;;;;;;;13.88;8.80;;;;;;;18.59;82.08;100055.53;5095068;27;20046;-71
2021/07/27 08:18:55;;;;;;;13.90;9.98;;;;;;;18.65;83.47;100053.28;5120773;27;20092;-72
2021/07/27 08:21:41;;;;;;;12.90;9.00;;;;;;;18.68;82.20;100044.13;5103113;27;20043;-71
2021/07/27 08:24:27;;;;;;;13.50;9.65;;;;;;;18.74;83.39;100046.31;5105683;27;20031;-71
2021/07/27 08:27:13;;;;;;;13.43;9.88;;;;;;;18.80;83.29;100043.25;5085974;27;20043;-71
2021/07/27 08:29:58;;;;;;;14.93;9.95;;;;;;;18.84;83.87;100033.72;5102853;27;20123;-71
2021/07/27 08:32:45;;;;;;;13.95;10.00;;;;;;;18.89;84.98;100035.47;5104373;27;20095;-71
2021/07/27 08:35:31;;;;;;;18.17;12.27;;;;;;;18.89;85.60;100027.84;5119073;27;20031;-72
2021/07/27 08:38:18;;;;;;;14.55;10.00;;;;;;;18.91;84.63;100031.09;5105324;27;20127;-72
2021/07/27 08:41:05;;;;;;;18.88;11.98;;;;;;;18.91;85.82;100019.84;5090429;27;20042;-72
2021/07/27 08:43:51;;;;;;;13.82;9.85;;;;;;;18.94;83.86;100019.13;5099169;27;20063;-72
2021/07/27 08:46:37;;;;;;;15.30;9.82;;;;;;;18.98;84.27;100022.84;5090685;27;20035;-72
2021/07/27 08:49:23;;;;;;;17.20;10.38;;;;;;;18.97;83.93;100018.41;5097291;27;20079;-72
2021/07/27 08:52:08;;;;;;;13.23;9.20;;;;;;;19.03;85.65;100018.13;5100571;27;20395;-72
2021/07/27 08:54:55;;;;;;;12.40;9.43;;;;;;;19.09;84.88;100016.69;5109556;27;20054;-72
2021/07/27 08:57:57;;;;;;;12.82;9.02;;;;;;;19.13;84.30;100017.56;5096763;27;20107;-71
2021/07/27 09:00:43;;;;;;;15.45;8.63;;;;;;;19.18;84.56;100014.50;5118206;27;20035;-71
2021/07/27 09:03:29;;;;;;;12.43;8.52;;;;;;;19.22;83.88;100018.19;5102788;27;20032;-71
2021/07/27 09:06:15;;;;;;;11.77;9.27;;;;;;;19.25;84.78;100006.22;5117211;27;20035;-71
2021/07/27 09:09:08;;;;;;;13.85;8.80;;;;;;;19.32;84.75;100009.19;5086971;27;20038;-72
2021/07/27 09:11:54;;;;;;;10.77;7.88;;;;;;;19.33;85.41;100005.19;5092838;27;20566;-72
2021/07/27 09:14:43;;;;;;;12.07;8.55;;;;;;;19.40;84.82;100011.00;5087258;27;20515;-72
2021/07/27 09:17:29;;;;;;;9.30;7.93;;;;;;;19.45;84.05;99997.84;5095345;27;20034;-72
2021/07/27 09:20:33;;;;;;;9.40;7.60;;;;;;;19.57;82.59;100008.97;5118750;27;20107;-72
2021/07/27 09:23:22;;;;;;;11.75;7.63;;;;;;;19.72;83.81;100010.97;5108612;27;20042;-72
2021/07/27 09:26:10;;;;;;;11.32;8.10;;;;;;;19.93;86.08;100015.44;5102930;27;20035;-72
2021/07/27 09:29:02;;;;;;;12.52;8.00;;;;;;;20.14;84.89;100017.91;5088287;27;20023;-72
2021/07/27 09:31:52;;;;;;;9.30;7.25;;;;;;;20.31;84.97;100023.09;5089428;27;20061;-72
2021/07/27 09:34:38;;;;;;;9.50;6.88;;;;;;;20.49;84.00;100020.63;5090195;27;20023;-72
2021/07/27 09:37:27;;;;;;;10.05;6.20;;;;;;;20.61;83.35;100022.50;5104294;27;20034;-72
2021/07/27 09:40:13;;;;;;;8.32;6.47;;;;;;;20.79;83.81;100026.47;5104550;27;20073;-72
2021/07/27 09:42:59;;;;;;;9.38;6.07;;;;;;;20.92;83.20;100027.94;5090182;27;20035;-72
2021/07/27 09:45:46;;;;;;;8.20;5.68;;;;;;;21.06;82.68;100020.88;5104429;27;20039;-72
2021/07/27 09:48:35;;;;;;;9.60;5.35;;;;;;;21.18;80.30;100032.81;5089913;27;20055;-72
2021/07/27 09:51:21;;;;;;;7.13;5.70;;;;;;;21.27;81.84;100026.09;5131370;27;20402;-72
2021/07/27 09:54:07;;;;;;;9.93;6.30;;;;;;;21.33;81.10;100025.38;5117464;27;20046;-72
2021/07/27 09:56:53;;;;;;;10.23;6.13;;;;;;;21.41;80.90;100029.97;5086800;27;20709;-72
2021/07/27 09:59:39;;;;;;;9.95;6.75;;;;;;;21.47;80.00;100032.50;5110702;27;20058;-71
2021/07/27 10:02:25;;;;;;;9.30;6.18;;;;;;;21.50;79.29;100026.06;5102395;27;20035;-72
2021/07/27 10:05:11;;;;;;;10.68;6.63;;;;;;;21.50;79.01;100018.41;5103722;27;20041;-73
2021/07/27 10:07:57;;;;;;;8.85;6.13;;;;;;;21.49;78.76;100030.91;5082046;28;20027;-73
2021/07/27 10:10:44;;;;;;;9.52;6.05;;;;;;;21.34;79.51;100027.03;5083550;27;20054;-72
2021/07/27 10:13:33;;;;;;;11.35;6.55;;;;;;;21.38;78.63;100033.56;5102795;27;20027;-73
2021/07/27 10:16:26;;;;;;;9.98;6.38;;;;;;;21.33;79.15;100035.88;5102839;27;20027;-72
2021/07/27 10:19:17;;;;;;;11.75;6.28;;;;;;;21.32;78.87;100039.91;5111799;27;20042;-72
2021/07/27 10:22:04;;;;;;;8.98;6.47;;;;;;;21.30;79.18;100030.97;5117041;27;20047;-72
2021/07/27 10:24:51;;;;;;;9.65;6.03;;;;;;;21.27;78.83;100038.19;5089619;27;20031;-80
2021/07/27 10:27:48;;;;;;;9.07;5.95;;;;;;;21.22;78.92;100044.16;5097966;27;20034;-78
2021/07/27 10:30:38;;;;;;;11.10;6.45;;;;;;;21.18;79.82;100049.75;5087496;27;20035;-78
2021/07/27 10:33:28;;;;;;;7.93;6.22;;;;;;;21.17;79.65;100045.31;5131000;27;20027;-78
2021/07/27 10:36:24;;;;;;;8.75;6.10;;;;;;;21.19;79.89;100042.09;5100227;27;20019;-79
2021/07/27 10:39:17;;;;;;;8.43;5.85;;;;;;;21.25;79.88;100045.41;5090902;27;20541;-78
2021/07/27 10:42:07;;;;;;;7.50;5.55;;;;;;;21.32;80.13;100040.72;5088047;27;20031;-80
2021/07/27 10:44:53;;;;;;;8.80;5.75;;;;;;;21.43;79.68;100043.75;5107295;27;20042;-80
2021/07/27 10:47:39;;;;;;;9.27;5.78;;;;;;;21.51;80.25;100045.47;5117087;27;20125;-68
2021/07/27 10:50:29;;;;;;;7.82;5.00;;;;;;;21.69;79.91;100045.75;5131633;27;20106;-68
2021/07/27 10:53:18;;;;;;;7.82;5.40;;;;;;;21.88;79.89;100044.81;5129324;27;20043;-68
2021/07/27 10:56:05;;;;;;;7.55;4.75;;;;;;;22.04;78.90;100045.44;5100147;28;20043;-68
2021/07/27 10:58:51;;;;;;;7.75;4.60;;;;;;;22.25;78.33;100042.09;5129450;27;20027;-68
2021/07/27 11:01:36;;;;;;;8.10;4.70;;;;;;;22.47;78.59;100040.34;5101694;27;20032;-68
2021/07/27 11:04:29;;;;;;;6.28;3.97;;;;;;;22.71;76.98;100032.53;5120028;27;20058;-68
2021/07/27 11:07:16;;;;;;;5.30;3.97;;;;;;;22.91;76.17;100036.78;5131577;28;20038;-68
2021/07/27 11:10:03;;;;;;;6.43;3.58;;;;;;;23.17;74.98;100030.16;5102276;28;20082;-68
2021/07/27 11:12:49;;;;;;;7.60;3.30;;;;;;;23.39;75.11;100036.03;5085742;28;20450;-68
2021/07/27 11:15:35;;;;;;;5.43;3.60;;;;;;;23.61;73.53;100037.81;5108824;28;20028;-68
2021/07/27 11:18:21;;;;;;;5.10;3.40;;;;;;;23.91;73.48;100039.66;5083658;28;20096;-68
2021/07/27 11:21:09;;;;;;;4.85;3.15;;;;;;;24.23;72.99;100024.81;5102821;28;20087;-68
2021/07/27 11:23:54;;;;;;;4.32;3.40;;;;;;;24.52;71.92;100031.44;5080959;27;20028;-68
2021/07/27 11:26:40;;;;;;;4.88;3.03;;;;;;;24.79;70.60;100025.41;5103115;28;20092;-68
2021/07/27 11:29:26;;;;;;;7.80;2.88;;;;;;;24.98;68.55;100025.84;5086904;28;20107;-68
2021/07/27 11:32:13;;;;;;;5.32;2.75;;;;;;;25.18;67.52;100026.31;5085766;28;20051;-68
2021/07/27 11:34:59;;;;;;;3.65;2.63;;;;;;;25.39;67.27;100014.13;5091074;27;20058;-67
2021/07/27 11:37:45;;;;;;;2.78;2.40;;;;;;;25.61;66.64;100014.91;5093520;27;20429;-68
2021/07/27 11:40:31;;;;;;;4.68;2.92;;;;;;;25.80;66.33;100015.69;5089681;27;20045;-68
2021/07/27 11:43:18;;;;;;;4.03;3.05;;;;;;;25.99;66.14;100018.13;5119248;27;21573;-68
2021/07/27 11:46:16;;;;;;;3.53;2.58;;;;;;;26.16;65.47;100009.91;5095026;27;20035;-68
2021/07/27 11:49:06;;;;;;;3.35;2.60;;;;;;;26.33;64.45;100011.88;5107786;27;20475;-68
2021/07/27 11:52:02;;;;;;;2.65;2.33;;;;;;;26.44;62.60;100012.63;5099805;27;20055;-76
2021/07/27 11:54:58;;;;;;;2.65;2.00;;;;;;;26.59;62.57;100015.44;5090430;27;20043;-68
2021/07/27 11:57:50;;;;;;;2.60;1.92;;;;;;;26.69;61.84;100011.69;5120648;27;20054;-68
2021/07/27 12:00:36;;;;;;;3.00;2.60;;;;;;;26.82;61.00;100017.72;5132835;27;20038;-68
2021/07/27 12:03:22;;;;;;;3.83;2.17;;;;;;;26.90;60.36;100005.06;5096195;27;20031;-68
2021/07/27 12:06:11;;;;;;;3.83;2.25;;;;;;;27.02;61.40;100001.69;5117894;27;20115;-68
2021/07/27 12:09:01;;;;;;;3.72;2.40;;;;;;;27.15;60.46;100004.88;5112629;27;20115;-68
2021/07/27 12:11:47;;;;;;;4.55;2.60;;;;;;;27.29;59.05;99993.38;5087321;28;20047;-68
2021/07/27 12:14:33;;;;;;;4.13;2.50;;;;;;;27.48;59.83;99996.88;5105586;27;20406;-68
2021/07/27 12:17:18;;;;;;;6.28;3.17;;;;;;;27.64;59.51;99999.97;5132640;27;20060;-68
2021/07/27 12:20:05;;;;;;;4.40;2.30;;;;;;;27.87;59.57;99989.97;5090204;27;20629;-68
2021/07/27 12:22:51;;;;;;;3.80;2.22;;;;;;;28.05;58.20;99997.09;5094794;27;20386;-68
2021/07/27 12:25:36;;;;;;;3.40;2.10;;;;;;;28.24;57.45;99989.91;5102138;27;20095;-69
2021/07/27 12:28:22;;;;;;;2.47;2.00;;;;;;;28.44;56.45;99990.09;5093082;27;20045;-68
2021/07/27 12:31:08;;;;;;;4.53;2.35;;;;;;;28.68;57.08;99993.84;5116679;27;20043;-69
2021/07/27 12:33:54;;;;;;;4.07;2.25;;;;;;;28.86;55.60;99987.88;5103597;27;20029;-68
2021/07/27 12:36:39;;;;;;;3.00;2.15;;;;;;;28.93;55.28;99989.78;5098915;27;20038;-69
2021/07/27 12:39:25;;;;;;;4.70;2.40;;;;;;;29.08;54.82;99981.81;5116559;27;20087;-68
2021/07/27 12:42:11;;;;;;;3.50;2.10;;;;;;;29.14;54.07;99986.63;5106113;27;20039;-68
2021/07/27 12:44:57;;;;;;;2.83;1.95;;;;;;;29.22;55.80;99980.75;5104012;27;20034;-69
2021/07/27 12:47:43;;;;;;;5.63;2.25;;;;;;;29.42;55.37;99978.78;5103555;27;20497;-68
2021/07/27 12:50:29;;;;;;;2.72;2.00;;;;;;;29.57;53.44;99980.13;5117086;27;20042;-69
2021/07/27 12:53:15;;;;;;;5.25;1.70;;;;;;;29.72;53.78;99974.16;5095475;28;20044;-69
2021/07/27 12:56:01;;;;;;;2.90;1.80;;;;;;;29.82;53.04;99973.94;5080902;28;20040;-68
2021/07/27 12:58:47;;;;;;;4.25;1.52;;;;;;;29.89;51.61;99975.06;5100597;28;20039;-69
2021/07/27 13:01:33;;;;;;;2.88;1.90;;;;;;;29.92;52.00;99971.31;5106341;27;20550;-68
2021/07/27 13:04:19;;;;;;;2.63;1.67;;;;;;;29.99;51.85;99966.25;5121931;27;20043;-68
2021/07/27 13:07:05;;;;;;;2.03;1.70;;;;;;;30.03;51.78;99966.16;5102552;27;20028;-68
2021/07/27 13:09:51;;;;;;;3.47;1.70;;;;;;;30.10;52.76;99968.91;5103289;27;20043;-68
2021/07/27 13:12:37;;;;;;;2.03;1.48;;;;;;;30.12;50.63;99969.25;5084070;28;20031;-68